Sary-Arka Airport
UAKK : now visible

Airfield :











YOU CAN JOIN US ON...

 
LOGIN :

Register | Disclaimer

   EN    FR    IT 

 









Legend :    VFR   Marginal VFR   IFR   Intensive IFR   Very Intensive IFR
Visi :
Ceiling :
>= 8 km
>= 3000ft
5 to 8 km
1000 to 3000 ft
1500m to 5 km
500 to 1000 ft
800 to 1500m
200 to 500 ft
< 800m
< 200 ft
Symbols :   Thunderstorms  Fog  Heavy snow  Heavy precipitations  Wind > 20 kt






- Airport Elevation : 1765 ft
- IATA code : KGF


UAKK - Sary-Arka

CURRENT METAR :
  • 211900Z 23010MPS 3000 -SN BLSN BKN022 M08/M09 Q1015 R23/820552 NOSIG RMK QFE714/0953

EXPIRED METARs :
  • 211830Z 23011MPS 2800 SN BLSN BKN030 M08/M09 Q1015 R23/820552 NOSIG RMK QFE714/0953
  • 211800Z 23009MPS 2400 SN BLSN BKN030 M08/M09 Q1015 R23/820552 NOSIG RMK QFE714/0953
  • 211730Z 23010MPS 1200 R23/P2000D SN BLSN BKN017 M08/M10 Q1015 R23/820552 NOSIG RMK QFE714/0953
  • 211700Z 23010MPS 1700 R23/P2000 -SHSN BLSN OVC020CB M08/M10 Q1015 R23/820552 NOSIG RMK QFE714/0953
  • 211630Z 23010MPS 1900 R23/P2000U -SHSN BLSN OVC026CB M08/M10 Q1015 R23/820552 NOSIG RMK QFE715/0953

TAF TAF UAKK
Valid from the 21 at 18:00 until the 22 at 18:00 UTC


211700Z 2118/2218 22011MPS 2000 SN BLSN BKN015 OVC030 TXM09/2209Z TNM12/2201Z
TEMPO 2118/2204 22015MPS 1000 SHSN BLSN BKN005 BKN011CB
TEMPO 2204/2215 23013G18MPS 0800 SHSN BLSN BKN006 BKN011CB
BECMG 2215/2217 21010G15MPS
TEMPO 2215/2218 21019MPS 0600 SHSN BLSN BKN005 BKN011CB



MET'MAP, your aeronautical weather chart ! - Copyright ORBIFLY December 2007 - Disclaimer

ORBIFLY MET'MAP TEAM :

Programming & Development : Alexandra Zaïnal
Concept & original design : Baudouin d'Aumeries
Assistance for programming : Marc-Olivier Méhu
Technical & hardware support : Manuel Goepfert

Contact : metmap@orbifly.com




SOURCES & CREDITS :

   NOAA       Earth
Advisory